Time;durP1;ratioP1;P1;durP2;ratioP2;P2;SDS_P1;SDS_P2;PMS_P1;PMS_P2;Temp;Humidity;BMP_temperature;BMP_pressure;BME280_temperature;BME280_humidity;BME280_pressure;Samples;Min_cycle;Max_cycle;Signal;HPM_P1;HPM_P2
2023/11/12 00:01:17;;;;;;;7.95;4.93;;;9.10;88.10;;;;;;4994978;28;20037;-34
2023/11/12 00:03:44;;;;;;;6.32;4.60;;;9.10;88.10;;;;;;4994628;28;20065;-35
2023/11/12 00:06:11;;;;;;;7.55;4.68;;;9.00;88.00;;;;;;4994905;28;20050;-35
2023/11/12 00:08:36;;;;;;;7.78;5.07;;;9.00;88.10;;;;;;4994668;28;20019;-34
2023/11/12 00:11:02;;;;;;;7.88;4.70;;;9.10;88.10;;;;;;4994416;28;20554;-35
2023/11/12 00:13:28;;;;;;;7.10;4.70;;;9.10;88.10;;;;;;4994546;28;20035;-35
2023/11/12 00:15:55;;;;;;;5.60;4.53;;;9.00;88.10;;;;;;4994387;28;20023;-35
2023/11/12 00:18:23;;;;;;;9.13;4.70;;;9.10;88.10;;;;;;4994684;28;20403;-35
2023/11/12 00:20:51;;;;;;;6.65;4.68;;;9.10;88.10;;;;;;4994616;28;20073;-35
2023/11/12 00:23:16;;;;;;;7.38;4.90;;;9.10;88.10;;;;;;4994468;28;20029;-35
2023/11/12 00:25:43;;;;;;;7.63;5.00;;;9.10;88.20;;;;;;4994399;28;20498;-35
2023/11/12 00:28:09;;;;;;;7.65;4.85;;;9.10;88.20;;;;;;4992824;28;20434;-35
2023/11/12 00:30:34;;;;;;;8.00;4.57;;;9.10;88.20;;;;;;4994217;28;20022;-36
2023/11/12 00:33:00;;;;;;;6.95;5.13;;;9.10;88.10;;;;;;4994485;28;20031;-34
2023/11/12 00:35:26;;;;;;;7.88;4.90;;;9.10;88.10;;;;;;4994247;28;20030;-34
2023/11/12 00:37:53;;;;;;;7.82;4.97;;;9.10;88.20;;;;;;4993990;28;20117;-34
2023/11/12 00:40:19;;;;;;;7.25;4.75;;;9.10;88.30;;;;;;4994357;28;20023;-34
2023/11/12 00:42:44;;;;;;;8.65;5.57;;;9.00;88.10;;;;;;4994070;28;20372;-34
2023/11/12 00:45:10;;;;;;;7.05;5.22;;;9.10;88.20;;;;;;4993828;28;20129;-35
2023/11/12 00:47:36;;;;;;;6.43;4.97;;;9.00;88.20;;;;;;4994078;28;20137;-36
2023/11/12 00:50:01;;;;;;;7.75;5.28;;;9.00;88.20;;;;;;4993862;28;20022;-35
2023/11/12 00:52:27;;;;;;;9.48;5.57;;;9.10;88.20;;;;;;4994204;28;20023;-35
2023/11/12 00:54:53;;;;;;;7.20;4.57;;;9.10;88.20;;;;;;4993779;28;20496;-34
2023/11/12 00:57:18;;;;;;;9.50;5.95;;;9.00;88.10;;;;;;4993700;28;20042;-33
2023/11/12 00:59:44;;;;;;;7.90;5.00;;;9.00;88.10;;;;;;4993497;28;20030;-35
2023/11/12 01:02:15;;;;;;;8.95;5.30;;;8.90;88.20;;;;;;4993876;28;20030;-34
2023/11/12 01:04:41;;;;;;;8.73;5.43;;;8.80;88.30;;;;;;4993751;28;20030;-34
2023/11/12 01:07:06;;;;;;;8.43;5.25;;;8.70;88.50;;;;;;4993578;28;20098;-33
2023/11/12 01:09:32;;;;;;;7.25;5.80;;;8.70;88.70;;;;;;4993254;28;20027;-37
2023/11/12 01:11:57;;;;;;;10.35;5.28;;;8.60;88.80;;;;;;4992618;28;20022;-34
2023/11/12 01:14:23;;;;;;;6.85;5.18;;;8.50;88.90;;;;;;4993741;28;20034;-35
2023/11/12 01:16:49;;;;;;;6.75;5.03;;;8.50;89.00;;;;;;4993142;28;20056;-34
2023/11/12 01:19:15;;;;;;;9.02;5.60;;;8.40;89.10;;;;;;4993468;28;20530;-36
2023/11/12 01:21:41;;;;;;;8.35;5.45;;;8.30;89.10;;;;;;4993161;28;20062;-35
2023/11/12 01:24:07;;;;;;;8.68;5.45;;;8.30;89.20;;;;;;4993050;28;20073;-34
2023/11/12 01:26:32;;;;;;;9.32;6.13;;;8.30;89.40;;;;;;4992966;28;20037;-36
2023/11/12 01:28:58;;;;;;;7.43;5.80;;;8.30;89.50;;;;;;4992745;28;20084;-36
2023/11/12 01:31:24;;;;;;;7.30;6.03;;;8.20;89.40;;;;;;4992985;28;20030;-34
2023/11/12 01:33:51;;;;;;;7.63;5.75;;;8.10;89.50;;;;;;4992938;28;20041;-35
2023/11/12 01:36:17;;;;;;;9.80;6.45;;;8.10;89.50;;;;;;4992976;28;20110;-35
2023/11/12 01:38:43;;;;;;;9.35;6.53;;;8.10;89.60;;;;;;4993002;28;20106;-35
2023/11/12 01:41:09;;;;;;;8.38;6.55;;;8.10;89.70;;;;;;4992830;28;20031;-35
2023/11/12 01:43:34;;;;;;;10.55;6.97;;;8.00;89.70;;;;;;4992639;28;20030;-34
2023/11/12 01:46:04;;;;;;;10.15;6.50;;;8.00;89.70;;;;;;4992704;28;20077;-35
2023/11/12 01:48:30;;;;;;;8.35;6.28;;;8.00;89.70;;;;;;4992640;28;20497;-35
2023/11/12 01:50:58;;;;;;;10.43;6.30;;;7.90;89.80;;;;;;4992987;28;20367;-35
2023/11/12 01:53:25;;;;;;;8.85;6.28;;;7.90;89.80;;;;;;4992664;28;20030;-35
2023/11/12 01:55:51;;;;;;;10.82;6.97;;;7.90;89.90;;;;;;4991563;28;20026;-35
2023/11/12 01:58:17;;;;;;;9.98;7.28;;;7.90;90.00;;;;;;4992545;28;20507;-35
2023/11/12 02:00:44;;;;;;;9.65;6.25;;;7.90;90.00;;;;;;4992486;28;20101;-36
2023/11/12 02:03:15;;;;;;;8.50;6.25;;;7.80;90.00;;;;;;4992529;28;20044;-36
2023/11/12 02:05:41;;;;;;;7.68;5.95;;;7.80;90.00;;;;;;4992356;28;20034;-35
2023/11/12 02:08:08;;;;;;;6.93;5.75;;;7.80;90.00;;;;;;4992323;28;20478;-34
2023/11/12 02:10:37;;;;;;;7.25;5.55;;;7.80;90.00;;;;;;4992255;28;20030;-37
2023/11/12 02:13:07;;;;;;;7.85;5.85;;;7.80;90.00;;;;;;4992408;28;20423;-36
2023/11/12 02:15:33;;;;;;;9.13;6.50;;;7.70;90.10;;;;;;4992440;28;20490;-36
2023/11/12 02:17:59;;;;;;;9.32;6.90;;;7.70;90.10;;;;;;4992146;28;20038;-35
2023/11/12 02:20:25;;;;;;;8.13;6.15;;;7.70;90.10;;;;;;4992331;28;20031;-35
2023/11/12 02:22:51;;;;;;;7.47;5.85;;;7.70;90.10;;;;;;4992273;28;20379;-33
2023/11/12 02:25:16;;;;;;;7.68;6.07;;;7.70;90.20;;;;;;4992191;28;20027;-34
2023/11/12 02:27:45;;;;;;;8.95;6.28;;;7.70;90.20;;;;;;4992001;28;20042;-34
2023/11/12 02:30:12;;;;;;;8.35;6.07;;;7.60;90.20;;;;;;4992468;28;20386;-35
2023/11/12 02:32:39;;;;;;;9.57;7.00;;;7.70;90.20;;;;;;4992277;28;20061;-34
2023/11/12 02:35:07;;;;;;;9.82;6.88;;;7.70;90.20;;;;;;4992315;28;20420;-33
2023/11/12 02:37:33;;;;;;;9.13;6.85;;;7.80;90.20;;;;;;4992229;28;20113;-34
2023/11/12 02:39:58;;;;;;;10.07;7.00;;;7.80;90.20;;;;;;4990920;28;20512;-34
2023/11/12 02:42:26;;;;;;;8.02;6.35;;;7.90;90.10;;;;;;4992225;28;20034;-34
2023/11/12 02:44:51;;;;;;;11.00;7.25;;;7.90;90.10;;;;;;4991937;28;20114;-33
2023/11/12 02:47:17;;;;;;;8.73;6.57;;;7.90;90.00;;;;;;4991993;28;20110;-34
2023/11/12 02:50:10;;;;;;;8.30;5.88;;;8.00;90.00;;;;;;4991943;28;20037;-35
2023/11/12 02:52:35;;;;;;;9.70;6.57;;;8.00;90.00;;;;;;4985282;28;20446;-34
2023/11/12 02:55:01;;;;;;;7.30;5.72;;;8.10;90.00;;;;;;4991946;28;20081;-35
2023/11/12 02:57:27;;;;;;;7.53;6.05;;;8.10;90.00;;;;;;4992022;28;20034;-30
2023/11/12 02:59:53;;;;;;;8.80;6.45;;;8.10;90.00;;;;;;4991803;28;20037;-34
2023/11/12 03:02:19;;;;;;;6.47;5.72;;;8.10;89.90;;;;;;4992008;28;20049;-34
2023/11/12 03:04:46;;;;;;;9.15;6.22;;;8.10;89.90;;;;;;4991748;28;20482;-35
2023/11/12 03:07:12;;;;;;;8.35;6.25;;;8.20;89.90;;;;;;4991903;28;20031;-33
2023/11/12 03:09:38;;;;;;;8.80;6.20;;;8.20;89.80;;;;;;4991938;28;20077;-34
2023/11/12 03:12:04;;;;;;;8.25;6.47;;;8.20;89.80;;;;;;4991856;28;20081;-35
2023/11/12 03:14:30;;;;;;;9.38;6.18;;;8.20;89.80;;;;;;4991975;28;20109;-34
2023/11/12 03:16:56;;;;;;;8.73;6.45;;;8.20;89.80;;;;;;4991831;28;20042;-33
2023/11/12 03:19:23;;;;;;;8.45;6.20;;;8.10;89.80;;;;;;4992023;28;20093;-34
2023/11/12 03:21:55;;;;;;;9.60;6.32;;;8.10;89.90;;;;;;4990381;28;20406;-34
2023/11/12 03:24:21;;;;;;;10.18;6.80;;;8.10;90.00;;;;;;4991650;28;20034;-34
2023/11/12 03:26:50;;;;;;;7.90;6.35;;;8.10;90.00;;;;;;4991707;28;20038;-34
2023/11/12 03:29:16;;;;;;;10.05;7.07;;;8.10;90.10;;;;;;4991488;28;20065;-35
2023/11/12 03:31:44;;;;;;;10.85;6.45;;;8.10;90.00;;;;;;4991611;28;20027;-35
2023/11/12 03:34:10;;;;;;;8.60;7.10;;;8.10;90.00;;;;;;4992129;28;20043;-34
2023/11/12 03:36:35;;;;;;;7.88;6.88;;;8.10;90.00;;;;;;4995180;28;20121;-35
2023/11/12 03:39:01;;;;;;;9.70;7.30;;;8.10;90.00;;;;;;4995183;28;20525;-35
2023/11/12 03:41:27;;;;;;;10.23;7.50;;;8.10;90.00;;;;;;4995081;28;20022;-35
2023/11/12 03:43:52;;;;;;;10.73;7.50;;;8.10;90.00;;;;;;4994833;28;20041;-35
2023/11/12 03:46:18;;;;;;;11.07;7.65;;;8.10;90.00;;;;;;4994956;28;20536;-31
2023/11/12 03:48:43;;;;;;;9.10;7.68;;;8.10;90.00;;;;;;4994820;28;20022;-36
2023/11/12 03:51:09;;;;;;;11.93;7.95;;;8.10;90.00;;;;;;4993636;28;20142;-34
2023/11/12 03:53:34;;;;;;;11.95;7.85;;;8.20;90.00;;;;;;4993600;28;20023;-35
2023/11/12 03:56:00;;;;;;;10.10;7.90;;;8.20;90.00;;;;;;4995106;28;20541;-35
2023/11/12 03:58:25;;;;;;;12.93;8.32;;;8.20;90.00;;;;;;4994708;28;20390;-36
2023/11/12 04:00:51;;;;;;;11.55;8.82;;;8.20;89.90;;;;;;4994920;28;20027;-35
2023/11/12 04:03:18;;;;;;;10.70;7.78;;;8.20;89.90;;;;;;4994782;28;20038;-35
2023/11/12 04:05:44;;;;;;;13.27;8.75;;;8.30;89.90;;;;;;4994547;28;20038;-35
2023/11/12 04:08:10;;;;;;;11.07;8.23;;;8.30;89.90;;;;;;4994525;28;20509;-34
2023/11/12 04:10:36;;;;;;;12.57;9.15;;;8.30;89.90;;;;;;4994473;28;20034;-36
2023/11/12 04:13:02;;;;;;;11.82;9.07;;;8.30;89.80;;;;;;4994507;28;20478;-35
2023/11/12 04:15:28;;;;;;;12.23;8.77;;;8.30;89.80;;;;;;4994514;28;20030;-34
2023/11/12 04:17:54;;;;;;;14.45;9.80;;;8.30;89.80;;;;;;4994125;28;20045;-35
2023/11/12 04:20:19;;;;;;;14.43;9.98;;;8.30;89.70;;;;;;4994495;28;20053;-35
2023/11/12 04:22:45;;;;;;;14.98;10.35;;;8.30;89.70;;;;;;4994342;28;20034;-35
2023/11/12 04:25:11;;;;;;;14.07;10.70;;;8.30;89.80;;;;;;4994141;28;20034;-36
2023/11/12 04:27:37;;;;;;;16.65;10.50;;;8.30;89.70;;;;;;4994445;28;20031;-35
2023/11/12 04:30:05;;;;;;;17.40;11.65;;;8.30;89.80;;;;;;4994079;28;20140;-36
2023/11/12 04:32:35;;;;;;;20.50;11.70;;;8.30;89.80;;;;;;4994293;28;20023;-35
2023/11/12 04:35:01;;;;;;;15.10;10.68;;;8.30;89.70;;;;;;4994125;28;20104;-35
2023/11/12 04:37:26;;;;;;;16.17;11.02;;;8.30;89.70;;;;;;4994097;28;20507;-35
2023/11/12 04:39:52;;;;;;;18.48;11.80;;;8.30;89.80;;;;;;4993997;28;20030;-33
2023/11/12 04:42:18;;;;;;;16.98;11.57;;;8.20;89.70;;;;;;4994042;28;20030;-34
2023/11/12 04:44:43;;;;;;;16.48;10.73;;;8.30;89.80;;;;;;4993791;28;20037;-34
2023/11/12 04:47:09;;;;;;;17.48;12.10;;;8.20;89.80;;;;;;4992766;28;20300;-34
2023/11/12 04:49:35;;;;;;;15.27;10.70;;;8.30;89.90;;;;;;4994018;28;20022;-35
2023/11/12 04:52:00;;;;;;;16.50;11.50;;;8.30;89.90;;;;;;4993790;28;20138;-34
2023/11/12 04:54:26;;;;;;;19.00;11.50;;;8.30;89.90;;;;;;4993728;28;20034;-35
2023/11/12 04:56:51;;;;;;;15.73;11.20;;;8.30;89.90;;;;;;4993640;28;20022;-34
2023/11/12 04:59:17;;;;;;;14.70;10.85;;;8.30;89.80;;;;;;4993523;28;20474;-34
2023/11/12 05:01:43;;;;;;;15.77;10.70;;;8.30;89.80;;;;;;4993532;28;20061;-34
2023/11/12 05:04:08;;;;;;;18.20;11.68;;;8.30;89.80;;;;;;4993604;28;20089;-33
2023/11/12 05:06:34;;;;;;;14.98;10.65;;;8.30;89.80;;;;;;4993511;28;20022;-35
2023/11/12 05:08:59;;;;;;;17.13;10.23;;;8.30;89.70;;;;;;4993462;28;20411;-35
2023/11/12 05:11:26;;;;;;;16.10;11.15;;;8.30;89.70;;;;;;4993331;28;20554;-34
2023/11/12 05:13:52;;;;;;;14.73;10.93;;;8.30;89.80;;;;;;4993322;28;20482;-34
2023/11/12 05:16:17;;;;;;;15.52;10.38;;;8.20;89.70;;;;;;4993049;28;20041;-35
2023/11/12 05:18:43;;;;;;;15.52;11.20;;;8.20;89.70;;;;;;4992695;28;20450;-34
2023/11/12 05:21:08;;;;;;;14.77;10.43;;;8.20;89.80;;;;;;4992805;28;20433;-35
2023/11/12 05:23:34;;;;;;;15.95;10.35;;;8.20;89.80;;;;;;4993138;28;20026;-35
2023/11/12 05:26:00;;;;;;;14.45;10.13;;;8.20;89.70;;;;;;4993019;28;20030;-34
2023/11/12 05:28:29;;;;;;;14.13;10.70;;;8.20;89.70;;;;;;4992788;28;20475;-34
2023/11/12 05:30:55;;;;;;;14.95;9.75;;;8.20;89.70;;;;;;4993091;28;20030;-35
2023/11/12 05:33:21;;;;;;;15.27;10.25;;;8.20;89.70;;;;;;4992999;28;20438;-35
2023/11/12 05:35:47;;;;;;;17.38;10.90;;;8.20;89.70;;;;;;4993051;28;20486;-35
2023/11/12 05:38:13;;;;;;;14.43;10.20;;;8.20;89.60;;;;;;4993037;28;20037;-35
2023/11/12 05:40:39;;;;;;;14.07;10.00;;;8.20;89.70;;;;;;4992951;28;20042;-34
2023/11/12 05:43:05;;;;;;;15.98;10.52;;;8.20;89.70;;;;;;4993148;28;20056;-36
2023/11/12 05:45:30;;;;;;;16.60;10.50;;;8.20;89.80;;;;;;4992572;28;20125;-35
2023/11/12 05:47:57;;;;;;;16.08;10.73;;;8.20;89.80;;;;;;4992530;28;20037;-35
2023/11/12 05:50:23;;;;;;;14.32;10.48;;;8.20;89.90;;;;;;4992591;28;20053;-35
2023/11/12 05:52:49;;;;;;;15.32;10.30;;;8.10;89.70;;;;;;4992808;28;20018;-34
2023/11/12 05:55:14;;;;;;;15.23;10.70;;;8.10;89.80;;;;;;4992632;28;20048;-35
2023/11/12 05:57:40;;;;;;;17.13;10.40;;;8.10;89.80;;;;;;4992234;28;20038;-35
2023/11/12 06:00:10;;;;;;;16.27;10.80;;;8.10;89.80;;;;;;4992568;28;20030;-35
2023/11/12 06:02:37;;;;;;;15.27;10.98;;;8.10;89.80;;;;;;4992541;28;20022;-35
2023/11/12 06:05:03;;;;;;;15.00;11.55;;;8.00;89.90;;;;;;4992365;28;20113;-33
2023/11/12 06:07:30;;;;;;;15.77;10.85;;;7.90;89.90;;;;;;4992372;28;20049;-34
2023/11/12 06:09:55;;;;;;;14.57;11.10;;;7.90;90.00;;;;;;4992375;28;20026;-34
2023/11/12 06:12:21;;;;;;;14.27;10.65;;;7.80;90.00;;;;;;4992443;28;20026;-34
2023/11/12 06:14:47;;;;;;;16.67;11.02;;;7.80;90.00;;;;;;4992439;28;20161;-34
2023/11/12 06:17:13;;;;;;;15.95;10.85;;;7.70;90.10;;;;;;4992308;28;20026;-35
2023/11/12 06:19:39;;;;;;;13.55;9.98;;;7.70;90.10;;;;;;4992358;28;20034;-35
2023/11/12 06:22:04;;;;;;;15.20;10.45;;;7.70;90.10;;;;;;4992294;28;20037;-36
2023/11/12 06:24:30;;;;;;;16.30;11.13;;;7.70;90.10;;;;;;4992200;28;20030;-35
2023/11/12 06:26:55;;;;;;;14.48;10.98;;;7.60;90.10;;;;;;4992281;28;20035;-34
2023/11/12 06:29:21;;;;;;;17.88;10.55;;;7.60;90.10;;;;;;4991972;28;20513;-34
2023/11/12 06:31:47;;;;;;;14.10;10.07;;;7.60;90.20;;;;;;4992328;28;20438;-35
2023/11/12 06:34:12;;;;;;;13.55;11.00;;;7.50;90.20;;;;;;4992072;28;20026;-35
2023/11/12 06:36:38;;;;;;;16.58;10.73;;;7.50;90.20;;;;;;4992597;28;20290;-35
2023/11/12 06:39:04;;;;;;;14.85;10.23;;;7.40;90.20;;;;;;4991957;28;21080;-34
2023/11/12 06:41:30;;;;;;;14.93;10.60;;;7.40;90.20;;;;;;4992142;28;20382;-34
2023/11/12 06:43:55;;;;;;;13.50;10.05;;;7.40;90.20;;;;;;4991993;28;20066;-35
2023/11/12 06:46:21;;;;;;;14.30;10.10;;;7.40;90.30;;;;;;4992034;28;20138;-34
2023/11/12 06:48:47;;;;;;;13.93;10.63;;;7.40;90.30;;;;;;4991932;28;20398;-35
2023/11/12 06:51:25;;;;;;;15.70;10.95;;;7.30;90.30;;;;;;4992011;28;20030;-35
2023/11/12 06:53:51;;;;;;;17.17;10.70;;;7.30;90.30;;;;;;4992157;28;20089;-34
2023/11/12 06:56:17;;;;;;;15.32;11.00;;;7.30;90.30;;;;;;4992058;28;20549;-36
2023/11/12 06:58:43;;;;;;;14.45;10.02;;;7.30;90.30;;;;;;4992205;28;20053;-35
2023/11/12 07:01:08;;;;;;;14.25;10.48;;;7.30;90.30;;;;;;4991995;28;20238;-35
2023/11/12 07:03:34;;;;;;;14.52;10.77;;;7.30;90.30;;;;;;4991925;28;20029;-36
2023/11/12 07:05:59;;;;;;;18.90;10.90;;;7.30;90.30;;;;;;4991919;28;20406;-35
2023/11/12 07:08:27;;;;;;;15.55;10.65;;;7.30;90.30;;;;;;4991807;28;20538;-36
2023/11/12 07:10:53;;;;;;;15.07;10.05;;;7.30;90.30;;;;;;4995227;28;20026;-34
2023/11/12 07:13:18;;;;;;;18.38;10.68;;;7.40;90.30;;;;;;4995689;28;20031;-35
2023/11/12 07:15:44;;;;;;;15.02;10.25;;;7.50;90.20;;;;;;4994879;28;20073;-34
2023/11/12 07:18:13;;;;;;;20.33;10.70;;;7.50;90.20;;;;;;4994552;28;20042;-36
2023/11/12 07:20:39;;;;;;;15.52;9.85;;;7.60;90.20;;;;;;4995280;28;20026;-35
2023/11/12 07:23:05;;;;;;;13.95;10.77;;;7.60;90.10;;;;;;4995282;28;20034;-36
2023/11/12 07:25:30;;;;;;;15.68;10.40;;;7.60;90.00;;;;;;4994915;28;20030;-35
2023/11/12 07:27:56;;;;;;;16.63;11.18;;;7.70;90.10;;;;;;4994907;28;20034;-34
2023/11/12 07:30:22;;;;;;;13.73;10.10;;;7.70;90.00;;;;;;4993091;28;20030;-42
2023/11/12 07:32:47;;;;;;;17.25;11.10;;;7.70;90.00;;;;;;4994905;28;20027;-34
2023/11/12 07:35:13;;;;;;;13.30;10.40;;;7.70;90.00;;;;;;4994825;28;20026;-34
2023/11/12 07:37:43;;;;;;;16.45;11.02;;;7.90;90.00;;;;;;4994804;28;20109;-32
2023/11/12 07:40:15;;;;;;;15.23;10.95;;;7.90;89.90;;;;;;4995408;28;20026;-34
2023/11/12 07:42:42;;;;;;;14.38;9.90;;;7.90;89.80;;;;;;4995053;28;20110;-33
2023/11/12 07:45:09;;;;;;;15.23;10.77;;;7.90;90.20;;;;;;4994989;28;20490;-35
2023/11/12 07:47:35;;;;;;;15.10;11.00;;;8.00;89.70;;;;;;4994806;28;20042;-35
2023/11/12 07:50:01;;;;;;;14.80;9.85;;;8.00;89.70;;;;;;4993566;28;20068;-33
2023/11/12 07:52:27;;;;;;;15.13;10.63;;;8.00;89.70;;;;;;4995004;28;20027;-35
2023/11/12 07:54:53;;;;;;;13.57;10.07;;;8.10;89.70;;;;;;4994852;28;20401;-34
2023/11/12 07:57:18;;;;;;;16.55;10.02;;;8.10;89.60;;;;;;4995228;28;20030;-34
2023/11/12 07:59:44;;;;;;;13.68;9.90;;;8.10;89.50;;;;;;4994922;28;20038;-34
2023/11/12 08:02:09;;;;;;;14.25;10.15;;;8.10;89.40;;;;;;4994925;28;20049;-34
2023/11/12 08:04:35;;;;;;;14.60;10.43;;;8.20;89.30;;;;;;4994845;28;20022;-35
2023/11/12 08:07:00;;;;;;;12.20;9.70;;;8.20;89.30;;;;;;4994597;28;20026;-34
2023/11/12 08:09:26;;;;;;;13.45;10.45;;;8.20;89.30;;;;;;4994559;28;20462;-35
2023/11/12 08:11:52;;;;;;;14.60;9.63;;;8.20;89.20;;;;;;4993916;28;20470;-34
2023/11/12 08:14:17;;;;;;;14.07;9.88;;;8.20;89.20;;;;;;4994953;28;20353;-35
2023/11/12 08:16:43;;;;;;;14.85;10.38;;;8.30;89.20;;;;;;4994238;28;20034;-35
2023/11/12 08:19:08;;;;;;;13.38;9.80;;;8.30;89.20;;;;;;4994135;28;20377;-34
2023/11/12 08:21:34;;;;;;;16.05;10.75;;;8.30;89.10;;;;;;4994072;28;20037;-35
2023/11/12 08:24:00;;;;;;;13.38;10.07;;;8.40;89.10;;;;;;4994232;28;20037;-35
2023/11/12 08:26:29;;;;;;;14.05;10.85;;;8.40;89.10;;;;;;4994108;28;20022;-35
2023/11/12 08:28:57;;;;;;;14.77;9.98;;;8.40;89.00;;;;;;4993788;28;20046;-35
2023/11/12 08:31:23;;;;;;;16.15;10.27;;;8.40;88.90;;;;;;4994156;28;20042;-35
2023/11/12 08:33:49;;;;;;;14.73;10.38;;;8.50;88.90;;;;;;4994120;28;20053;-36
2023/11/12 08:36:14;;;;;;;14.00;9.70;;;8.50;88.80;;;;;;4993885;28;20058;-36
2023/11/12 08:38:40;;;;;;;13.73;9.77;;;8.50;88.80;;;;;;4993916;28;20030;-35
2023/11/12 08:41:08;;;;;;;15.35;9.93;;;8.60;88.80;;;;;;4993696;28;20033;-35
2023/11/12 08:43:33;;;;;;;14.43;10.50;;;8.60;88.70;;;;;;4993751;28;20153;-34
2023/11/12 08:45:59;;;;;;;17.90;10.75;;;8.60;88.70;;;;;;4993636;28;20105;-35
2023/11/12 08:48:31;;;;;;;16.08;11.05;;;8.70;88.60;;;;;;4993546;28;20031;-35
2023/11/12 08:50:58;;;;;;;14.95;10.15;;;8.70;88.50;;;;;;4994003;28;20022;-35
2023/11/12 08:53:24;;;;;;;16.38;10.90;;;8.70;88.40;;;;;;4993994;28;20173;-34
2023/11/12 08:55:49;;;;;;;17.15;11.15;;;8.80;88.40;;;;;;4993693;28;20437;-34
2023/11/12 08:58:15;;;;;;;16.55;10.55;;;8.80;88.30;;;;;;4993387;28;20121;-35
2023/11/12 09:00:41;;;;;;;17.33;10.48;;;8.80;88.30;;;;;;4993444;28;20474;-35
2023/11/12 09:03:07;;;;;;;15.43;10.85;;;8.80;88.20;;;;;;4993768;28;20031;-36
2023/11/12 09:05:34;;;;;;;16.17;10.57;;;8.80;88.20;;;;;;4993674;28;20541;-36
2023/11/12 09:07:59;;;;;;;14.95;11.02;;;8.80;88.20;;;;;;4993288;28;20030;-34
2023/11/12 09:10:25;;;;;;;15.18;10.80;;;8.80;88.20;;;;;;4993151;28;20026;-34
2023/11/12 09:12:50;;;;;;;15.25;10.48;;;8.80;88.30;;;;;;4993354;28;20029;-35
2023/11/12 09:15:16;;;;;;;15.48;12.38;;;8.80;88.30;;;;;;4993309;28;20026;-35
2023/11/12 09:17:41;;;;;;;15.35;11.38;;;8.80;88.30;;;;;;4993261;28;20030;-35
2023/11/12 09:20:13;;;;;;;17.98;12.20;;;8.80;88.30;;;;;;4993180;28;20068;-37
2023/11/12 09:22:40;;;;;;;15.20;11.40;;;8.90;88.30;;;;;;4993030;28;20116;-35
2023/11/12 09:25:06;;;;;;;17.17;11.55;;;8.90;88.20;;;;;;4992966;28;20035;-35
2023/11/12 09:27:31;;;;;;;16.90;12.05;;;9.00;88.20;;;;;;4992833;28;20340;-35
2023/11/12 09:29:57;;;;;;;14.65;11.13;;;9.00;88.10;;;;;;4992946;28;20076;-35
2023/11/12 09:32:22;;;;;;;16.20;10.88;;;9.00;88.10;;;;;;4992362;28;20030;-35
2023/11/12 09:34:48;;;;;;;16.17;10.50;;;9.00;88.00;;;;;;4993038;28;20264;-36
2023/11/12 09:37:13;;;;;;;17.27;11.52;;;9.00;88.00;;;;;;4992930;28;20034;-35
2023/11/12 09:39:39;;;;;;;13.65;10.02;;;9.00;87.90;;;;;;4993025;28;20061;-35
2023/11/12 09:42:06;;;;;;;15.48;10.07;;;9.10;88.00;;;;;;4992745;28;20080;-35
2023/11/12 09:44:37;;;;;;;15.70;10.80;;;9.00;88.00;;;;;;4992870;28;20038;-36
2023/11/12 09:47:29;;;;;;;14.05;9.90;;;9.10;88.00;;;;;;4992658;28;20030;-34
2023/11/12 09:49:55;;;;;;;16.05;10.25;;;9.10;88.60;;;;;;4977064;28;20123;-34
2023/11/12 09:52:22;;;;;;;14.07;10.02;;;9.10;88.00;;;;;;4992729;28;20023;-33
2023/11/12 09:54:49;;;;;;;12.38;9.27;;;9.10;88.00;;;;;;4992574;28;20026;-35
2023/11/12 09:57:15;;;;;;;14.80;9.85;;;9.10;88.00;;;;;;4991538;28;20038;-35
2023/11/12 09:59:40;;;;;;;14.10;9.35;;;9.10;88.00;;;;;;4991205;28;20057;-34
2023/11/12 10:02:08;;;;;;;13.55;9.98;;;9.20;88.00;;;;;;4989824;28;20386;-37
2023/11/12 10:04:33;;;;;;;17.80;11.43;;;9.20;88.00;;;;;;4989816;28;20417;-33
2023/11/12 10:06:59;;;;;;;15.75;10.77;;;9.30;87.80;;;;;;4991061;28;20081;-32
2023/11/12 10:09:28;;;;;;;12.35;9.52;;;9.40;87.70;;;;;;4991006;28;20084;-35
2023/11/12 10:12:06;;;;;;;13.73;9.43;;;9.50;87.50;;;;;;4991109;28;20030;-32
2023/11/12 10:14:32;;;;;;;13.70;9.48;;;9.50;87.40;;;;;;4991181;28;20085;-37
2023/11/12 10:17:10;;;;;;;10.38;8.57;;;9.60;87.30;;;;;;4991294;28;20030;-36
2023/11/12 10:19:37;;;;;;;13.48;9.18;;;9.60;87.10;;;;;;4990809;28;20061;-35
2023/11/12 10:22:06;;;;;;;12.75;9.15;;;9.60;87.10;;;;;;4991145;28;20085;-36
2023/11/12 10:24:42;;;;;;;12.27;8.65;;;9.60;87.00;;;;;;4991656;28;20022;-36
2023/11/12 10:27:11;;;;;;;12.35;8.73;;;9.60;87.00;;;;;;4992196;28;20018;-35
2023/11/12 10:29:37;;;;;;;12.20;8.25;;;9.70;87.00;;;;;;4991999;28;20049;-36
2023/11/12 10:32:02;;;;;;;10.80;7.95;;;9.80;87.00;;;;;;4992158;28;20026;-35
2023/11/12 10:34:28;;;;;;;10.15;7.85;;;9.90;86.70;;;;;;4992424;28;20041;-36
2023/11/12 10:37:05;;;;;;;11.93;7.97;;;10.00;87.00;;;;;;4992500;28;20081;-36
2023/11/12 10:39:40;;;;;;;10.65;7.97;;;10.10;86.40;;;;;;4991960;28;20038;-35
2023/11/12 10:42:21;;;;;;;13.70;8.10;;;10.20;86.10;;;;;;4992140;28;20027;-35
2023/11/12 10:44:51;;;;;;;11.90;7.65;;;10.20;86.50;;;;;;4995402;28;20198;-35
2023/11/12 10:47:18;;;;;;;11.43;8.85;;;10.20;85.80;;;;;;4995985;28;20081;-36
2023/11/12 10:49:45;;;;;;;12.23;8.02;;;10.20;85.70;;;;;;4995950;28;20057;-35
2023/11/12 10:52:12;;;;;;;10.00;7.70;;;10.20;85.50;;;;;;4995847;28;20044;-35
2023/11/12 10:54:39;;;;;;;9.93;7.60;;;10.20;85.50;;;;;;4995944;28;20037;-36
2023/11/12 10:57:05;;;;;;;11.30;7.80;;;10.30;85.60;;;;;;4995850;28;20076;-35
2023/11/12 10:59:35;;;;;;;9.82;7.22;;;10.30;85.50;;;;;;4995678;28;20037;-36
2023/11/12 11:02:01;;;;;;;9.80;6.97;;;10.40;85.50;;;;;;4995199;28;20038;-36
2023/11/12 11:04:28;;;;;;;9.38;7.15;;;10.40;85.50;;;;;;4995850;28;20394;-36
2023/11/12 11:06:54;;;;;;;10.27;6.88;;;10.50;85.30;;;;;;4995466;28;20035;-36
2023/11/12 11:09:22;;;;;;;8.98;6.88;;;10.50;85.20;;;;;;4995603;28;20053;-35
2023/11/12 11:11:49;;;;;;;7.43;5.30;;;10.60;85.20;;;;;;4995609;28;20394;-35
2023/11/12 11:14:27;;;;;;;7.22;4.28;;;10.60;84.90;;;;;;4995584;28;20085;-34
2023/11/12 11:16:53;;;;;;;4.40;3.42;;;10.60;84.80;;;;;;4995363;28;20486;-34
2023/11/12 11:19:38;;;;;;;7.13;4.28;;;10.70;84.70;;;;;;4995383;28;20113;-36
2023/11/12 11:22:22;;;;;;;5.63;3.58;;;10.80;84.60;;;;;;4995343;28;20128;-35
2023/11/12 11:24:48;;;;;;;4.60;3.45;;;10.80;84.20;;;;;;4995257;28;20038;-34
2023/11/12 11:27:14;;;;;;;6.20;3.65;;;10.80;84.00;;;;;;4995166;28;20037;-34
2023/11/12 11:30:03;;;;;;;6.68;4.18;;;10.90;83.80;;;;;;4995195;28;20061;-36
2023/11/12 11:32:28;;;;;;;7.43;3.85;;;10.90;83.50;;;;;;4995352;28;20030;-37
2023/11/12 11:34:54;;;;;;;5.47;4.25;;;10.90;83.60;;;;;;4995187;28;20438;-35
2023/11/12 11:37:21;;;;;;;5.38;4.43;;;11.00;83.50;;;;;;4995296;28;20366;-36
2023/11/12 11:39:47;;;;;;;5.40;3.97;;;11.00;83.50;;;;;;4995019;28;20537;-35
2023/11/12 11:42:13;;;;;;;4.60;3.80;;;11.10;83.40;;;;;;4995365;28;20160;-34
2023/11/12 11:44:41;;;;;;;7.53;4.15;;;11.10;83.20;;;;;;4994907;28;20118;-36
2023/11/12 11:47:17;;;;;;;7.10;4.22;;;11.20;83.00;;;;;;4995017;28;20026;-35
2023/11/12 11:49:58;;;;;;;5.85;4.32;;;11.30;82.80;;;;;;4994971;28;20129;-40
2023/11/12 11:52:28;;;;;;;6.28;4.85;;;11.30;82.50;;;;;;4994860;28;20034;-35
2023/11/12 11:54:56;;;;;;;7.45;5.10;;;11.40;82.50;;;;;;4994451;28;20521;-36
2023/11/12 11:57:26;;;;;;;11.38;5.85;;;11.50;82.50;;;;;;4994758;28;20394;-35
2023/11/12 11:59:56;;;;;;;14.30;8.18;;;11.50;81.70;;;;;;4994479;28;20034;-35
2023/11/12 12:02:23;;;;;;;16.73;9.25;;;11.60;81.90;;;;;;4995048;28;20026;-35
2023/11/12 12:04:55;;;;;;;17.05;9.30;;;11.60;81.80;;;;;;4994926;28;20490;-35
2023/11/12 12:07:26;;;;;;;11.50;7.30;;;11.70;81.80;;;;;;4994751;28;20338;-35
2023/11/12 12:09:53;;;;;;;11.13;7.65;;;11.80;81.70;;;;;;4994137;28;20031;-35
2023/11/12 12:12:19;;;;;;;9.10;6.25;;;11.90;81.60;;;;;;4994557;28;20030;-36
2023/11/12 12:14:45;;;;;;;9.02;6.03;;;11.90;82.00;;;;;;4994606;28;20027;-35
2023/11/12 12:17:11;;;;;;;7.60;5.00;;;11.90;81.00;;;;;;4993030;28;20038;-35
2023/11/12 12:19:37;;;;;;;7.35;4.53;;;11.90;80.50;;;;;;4994566;28;20065;-35
2023/11/12 12:22:04;;;;;;;7.18;4.82;;;11.80;80.40;;;;;;4994354;28;20038;-35
2023/11/12 12:24:32;;;;;;;8.38;4.68;;;11.80;80.60;;;;;;4994314;28;20503;-35
2023/11/12 12:26:58;;;;;;;6.38;5.18;;;11.80;80.50;;;;;;4994266;28;20142;-36
2023/11/12 12:29:25;;;;;;;8.13;5.65;;;11.80;80.40;;;;;;4993927;28;20054;-35
2023/11/12 12:31:54;;;;;;;7.35;5.10;;;11.70;80.60;;;;;;4994200;28;20023;-35
2023/11/12 12:34:21;;;;;;;6.47;5.10;;;11.80;80.60;;;;;;4994709;28;20486;-36
2023/11/12 12:37:07;;;;;;;7.68;5.70;;;11.80;80.70;;;;;;4994054;28;20034;-35
2023/11/12 12:39:50;;;;;;;7.43;5.10;;;11.80;80.00;;;;;;4993837;28;20366;-35
2023/11/12 12:42:16;;;;;;;9.00;5.43;;;11.80;80.30;;;;;;4994023;28;20101;-35
2023/11/12 12:44:51;;;;;;;7.25;5.13;;;11.80;80.30;;;;;;4993831;28;20557;-35